Time;durP1;ratioP1;P1;durP2;ratioP2;P2;SDS_P1;SDS_P2;PMS_P1;PMS_P2;Temp;Humidity;BMP_temperature;BMP_pressure;BME280_temperature;BME280_humidity;BME280_pressure;Samples;Min_cycle;Max_cycle;Signal;HPM_P1;HPM_P2
2023/03/09 00:00:59;;;;;;;;;;;;;;;7.66;88.77;97763.72;5093990;28;20366;-64
2023/03/09 00:03:28;;;;;;;;;;;;;;;7.63;89.84;97754.47;5094038;28;19920;-64
2023/03/09 00:05:57;;;;;;;;;;;;;;;7.65;89.82;97755.28;5093871;28;19920;-63
2023/03/09 00:08:28;;;;;;;;;;;;;;;7.65;89.18;97752.75;5094531;28;19927;-64
2023/03/09 00:10:57;;;;;;;;;;;;;;;7.65;89.09;97759.53;5093957;28;19924;-64
2023/03/09 00:13:25;;;;;;;;;;;;;;;7.60;89.77;97764.69;5093677;28;19924;-64
2023/03/09 00:15:55;;;;;;;;;;;;;;;7.58;89.72;97761.38;5093820;28;19920;-64
2023/03/09 00:18:24;;;;;;;;;;;;;;;7.58;89.41;97761.38;5093877;28;19920;-63
2023/03/09 00:20:52;;;;;;;;;;;;;;;7.57;89.82;97764.75;5094057;28;20354;-64
2023/03/09 00:23:21;;;;;;;;;;;;;;;7.55;89.78;97766.50;5093853;28;19920;-64
2023/03/09 00:25:49;;;;;;;;;;;;;;;7.55;90.25;97760.56;5094109;28;19981;-64
2023/03/09 00:28:18;;;;;;;;;;;;;;;7.54;90.09;97754.66;5093749;28;19920;-64
2023/03/09 00:30:46;;;;;;;;;;;;;;;7.55;89.93;97756.34;5094534;28;19962;-64
2023/03/09 00:33:16;;;;;;;;;;;;;;;7.57;89.68;97752.06;5097704;28;19921;-64
2023/03/09 00:35:45;;;;;;;;;;;;;;;7.56;89.94;97745.31;5097928;28;20419;-64
2023/03/09 00:38:13;;;;;;;;;;;;;;;7.54;89.94;97741.97;5097896;28;20267;-64
2023/03/09 00:40:42;;;;;;;;;;;;;;;7.55;90.40;97740.28;5097750;28;20362;-64
2023/03/09 00:43:10;;;;;;;;;;;;;;;7.53;90.25;97732.69;5097837;28;19955;-64
2023/03/09 00:45:38;;;;;;;;;;;;;;;7.54;90.54;97726.72;5097397;28;20010;-64
2023/03/09 00:48:07;;;;;;;;;;;;;;;7.54;90.75;97741.97;5097471;28;20358;-64
2023/03/09 00:50:37;;;;;;;;;;;;;;;7.55;90.79;97730.97;5097403;28;19920;-64
2023/03/09 00:53:05;;;;;;;;;;;;;;;7.54;90.80;97729.28;5097346;28;20015;-64
2023/03/09 00:55:34;;;;;;;;;;;;;;;7.56;91.09;97727.53;5097213;28;19920;-64
2023/03/09 00:58:02;;;;;;;;;;;;;;;7.57;90.70;97738.53;5097635;28;19951;-64
2023/03/09 01:00:33;;;;;;;;;;;;;;;7.55;90.73;97736.03;5096208;28;20018;-64
2023/03/09 01:03:02;;;;;;;;;;;;;;;7.56;90.75;97742.75;5097234;28;19920;-64
2023/03/09 01:05:31;;;;;;;;;;;;;;;7.55;90.80;97735.19;5096304;28;19943;-64
2023/03/09 01:08:01;;;;;;;;;;;;;;;7.57;90.47;97721.59;5097033;28;19920;-64
2023/03/09 01:10:31;;;;;;;;;;;;;;;7.56;90.96;97721.66;5097079;28;19969;-64
2023/03/09 01:13:00;;;;;;;;;;;;;;;7.56;90.73;97712.31;5096718;28;19920;-63
2023/03/09 01:15:28;;;;;;;;;;;;;;;7.54;90.88;97696.28;5096116;28;20357;-64
2023/03/09 01:17:57;;;;;;;;;;;;;;;7.54;90.56;97693.75;5096771;28;19927;-63
2023/03/09 01:20:25;;;;;;;;;;;;;;;7.57;91.50;97686.06;5095621;28;19920;-64
2023/03/09 01:22:54;;;;;;;;;;;;;;;7.59;90.90;97686.88;5097023;28;19920;-64
2023/03/09 01:25:24;;;;;;;;;;;;;;;7.56;91.27;97686.94;5097157;28;19920;-63
2023/03/09 01:27:54;;;;;;;;;;;;;;;7.57;90.50;97683.53;5096704;28;19993;-64
2023/03/09 01:30:23;;;;;;;;;;;;;;;7.57;91.11;97677.63;5096110;28;19923;-64
2023/03/09 01:32:53;;;;;;;;;;;;;;;7.54;90.81;97652.28;5096862;28;19934;-64
2023/03/09 01:35:22;;;;;;;;;;;;;;;7.56;90.86;97646.31;5095826;28;19993;-64
2023/03/09 01:37:50;;;;;;;;;;;;;;;7.55;90.78;97642.13;5097281;28;19920;-64
2023/03/09 01:40:20;;;;;;;;;;;;;;;7.56;90.60;97645.50;5096695;28;19943;-64
2023/03/09 01:42:56;;;;;;;;;;;;;;;7.55;90.69;97628.59;5096654;28;19920;-64
2023/03/09 01:45:35;;;;;;;;;;;;;;;7.55;90.72;97614.22;5096464;28;20011;-64
2023/03/09 01:48:04;;;;;;;;;;;;;;;7.57;91.06;97630.22;5095144;28;19924;-64
2023/03/09 01:50:34;;;;;;;;;;;;;;;7.56;91.16;97631.09;5095720;28;19974;-64
2023/03/09 01:53:07;;;;;;;;;;;;;;;7.54;90.43;97637.91;5096553;28;20457;-64
2023/03/09 01:55:37;;;;;;;;;;;;;;;7.56;90.33;97646.31;5096221;28;19955;-63
2023/03/09 01:58:09;;;;;;;;;;;;;;;7.59;90.81;97656.41;5094946;28;19974;-63
2023/03/09 02:00:42;;;;;;;;;;;;;;;7.56;90.42;97653.94;5095193;28;20077;-64
2023/03/09 02:03:13;;;;;;;;;;;;;;;7.58;90.88;97659.84;5096091;28;19927;-64
2023/03/09 02:05:45;;;;;;;;;;;;;;;7.57;90.08;97672.53;5096288;28;19927;-63
2023/03/09 02:08:17;;;;;;;;;;;;;;;7.56;91.12;97671.69;5095980;28;19945;-64
2023/03/09 02:10:52;;;;;;;;;;;;;;;7.59;91.09;97665.72;5096210;28;19943;-64
2023/03/09 02:13:24;;;;;;;;;;;;;;;7.61;90.41;97663.97;5095902;28;19974;-64
2023/03/09 02:15:53;;;;;;;;;;;;;;;7.66;90.79;97650.34;5094704;28;20430;-64
2023/03/09 02:18:21;;;;;;;;;;;;;;;7.69;90.33;97646.91;5095744;28;20036;-63
2023/03/09 02:20:54;;;;;;;;;;;;;;;7.74;90.78;97640.84;5094378;28;19920;-64
2023/03/09 02:23:30;;;;;;;;;;;;;;;7.76;90.28;97644.19;5094547;28;19923;-63
2023/03/09 02:26:05;;;;;;;;;;;;;;;7.82;90.65;97643.22;5094873;28;19927;-64
2023/03/09 02:28:36;;;;;;;;;;;;;;;7.83;89.61;97635.56;5094409;28;19923;-64
2023/03/09 02:31:06;;;;;;;;;;;;;;;7.90;90.34;97621.84;5095429;28;19926;-64
2023/03/09 02:33:35;;;;;;;;;;;;;;;7.95;89.13;97614.97;5095714;28;19920;-64
2023/03/09 02:36:03;;;;;;;;;;;;;;;7.97;90.09;97617.47;5094144;28;20332;-64
2023/03/09 02:38:37;;;;;;;;;;;;;;;7.94;89.84;97608.19;5096061;28;19924;-65
2023/03/09 02:41:09;;;;;;;;;;;;;;;7.94;89.12;97602.31;5095135;28;19926;-64
2023/03/09 02:43:43;;;;;;;;;;;;;;;7.90;89.67;97591.38;5095291;28;19924;-64
2023/03/09 02:46:12;;;;;;;;;;;;;;;7.89;89.56;97597.31;5095275;28;19920;-64
2023/03/09 02:48:41;;;;;;;;;;;;;;;7.86;90.10;97589.78;5095456;28;20011;-64
2023/03/09 02:51:10;;;;;;;;;;;;;;;7.88;90.08;97571.97;5094994;28;19920;-64
2023/03/09 02:53:38;;;;;;;;;;;;;;;7.87;90.42;97560.16;5093383;28;19920;-64
2023/03/09 02:56:08;;;;;;;;;;;;;;;7.87;89.60;97553.34;5094953;28;19920;-64
2023/03/09 02:58:37;;;;;;;;;;;;;;;7.91;90.50;97562.59;5094389;28;19924;-64
2023/03/09 03:01:07;;;;;;;;;;;;;;;7.95;90.57;97561.63;5095057;28;19924;-64
2023/03/09 03:03:35;;;;;;;;;;;;;;;8.01;90.11;97558.94;5095160;28;19923;-64
2023/03/09 03:06:04;;;;;;;;;;;;;;;8.02;89.84;97565.69;5094845;28;20324;-64
2023/03/09 03:08:35;;;;;;;;;;;;;;;8.02;90.62;97567.38;5093638;28;20431;-64
2023/03/09 03:11:09;;;;;;;;;;;;;;;7.97;90.10;97570.03;5094558;28;20370;-63
2023/03/09 03:13:40;;;;;;;;;;;;;;;7.97;90.17;97577.66;5094652;28;19920;-64
2023/03/09 03:16:12;;;;;;;;;;;;;;;7.95;90.44;97576.88;5095080;28;20006;-64
2023/03/09 03:18:41;;;;;;;;;;;;;;;7.92;90.84;97589.63;5093530;28;19920;-64
2023/03/09 03:21:10;;;;;;;;;;;;;;;7.89;90.19;97573.66;5094429;28;19924;-64
2023/03/09 03:23:42;;;;;;;;;;;;;;;7.89;90.86;97583.81;5094576;28;19923;-64
2023/03/09 03:26:11;;;;;;;;;;;;;;;7.89;91.09;97584.63;5093336;28;19969;-64
2023/03/09 03:28:44;;;;;;;;;;;;;;;7.89;91.20;97579.53;5095166;28;19981;-64
2023/03/09 03:31:21;;;;;;;;;;;;;;;7.89;91.25;97584.63;5094452;28;20437;-64
2023/03/09 03:33:51;;;;;;;;;;;;;;;7.85;91.29;97599.97;5094507;28;19920;-63
2023/03/09 03:36:21;;;;;;;;;;;;;;;7.81;90.82;97595.84;5094636;28;19927;-64
2023/03/09 03:38:51;;;;;;;;;;;;;;;7.79;91.03;97611.13;5094706;28;19926;-64
2023/03/09 03:41:19;;;;;;;;;;;;;;;7.79;90.73;97608.59;5092990;28;20010;-64
2023/03/09 03:43:52;;;;;;;;;;;;;;;7.79;91.07;97621.28;5094225;28;19926;-64
2023/03/09 03:46:22;;;;;;;;;;;;;;;7.78;91.42;97626.38;5094803;28;20315;-64
2023/03/09 03:48:51;;;;;;;;;;;;;;;7.79;90.84;97638.22;5093083;28;20370;-64
2023/03/09 03:51:21;;;;;;;;;;;;;;;7.76;91.09;97639.13;5094226;28;19919;-64
2023/03/09 03:53:53;;;;;;;;;;;;;;;7.77;91.21;97635.72;5094769;28;19966;-64
2023/03/09 03:56:22;;;;;;;;;;;;;;;7.77;91.08;97623.03;5092957;28;19920;-64
2023/03/09 03:58:51;;;;;;;;;;;;;;;7.77;91.71;97625.56;5093458;28;19962;-63
2023/03/09 04:01:22;;;;;;;;;;;;;;;7.76;91.25;97613.72;5094341;28;20015;-64
2023/03/09 04:03:58;;;;;;;;;;;;;;;7.76;91.13;97598.50;5094239;28;20380;-63
2023/03/09 04:06:27;;;;;;;;;;;;;;;7.75;91.41;97589.19;5096339;28;20331;-64
2023/03/09 04:08:55;;;;;;;;;;;;;;;7.73;91.87;97593.47;5097041;28;20373;-64
2023/03/09 04:11:24;;;;;;;;;;;;;;;7.75;91.91;97589.19;5097011;28;20301;-64
2023/03/09 04:13:53;;;;;;;;;;;;;;;7.77;91.66;97574.78;5096664;28;19974;-64
2023/03/09 04:16:24;;;;;;;;;;;;;;;7.77;91.33;97567.16;5098081;28;20385;-64
2023/03/09 04:18:53;;;;;;;;;;;;;;;7.76;92.03;97577.34;5096922;28;19926;-64
2023/03/09 04:21:23;;;;;;;;;;;;;;;7.77;91.43;97577.31;5098326;28;19920;-64
2023/03/09 04:23:52;;;;;;;;;;;;;;;7.79;91.56;97583.19;5096643;28;20365;-64
2023/03/09 04:26:21;;;;;;;;;;;;;;;7.79;91.96;97578.13;5098128;28;20360;-64
2023/03/09 04:29:01;;;;;;;;;;;;;;;7.78;91.46;97586.59;5098222;28;20358;-64
2023/03/09 04:31:32;;;;;;;;;;;;;;;7.80;91.74;97573.84;5098730;28;20274;-64
2023/03/09 04:34:03;;;;;;;;;;;;;;;7.82;91.88;97582.28;5098355;28;19919;-64
2023/03/09 04:36:33;;;;;;;;;;;;;;;7.77;91.43;97574.78;5097714;28;19955;-64
2023/03/09 04:39:02;;;;;;;;;;;;;;;7.75;91.54;97589.19;5097681;28;19953;-64
2023/03/09 04:41:35;;;;;;;;;;;;;;;7.72;91.81;97591.81;5097948;28;20316;-64
2023/03/09 04:44:07;;;;;;;;;;;;;;;7.71;91.76;97594.38;5097750;28;19981;-64
2023/03/09 04:46:37;;;;;;;;;;;;;;;7.69;91.82;97581.72;5097464;28;19924;-64
2023/03/09 04:49:10;;;;;;;;;;;;;;;7.71;92.00;97585.06;5098348;28;19942;-64
2023/03/09 04:51:41;;;;;;;;;;;;;;;7.74;91.47;97558.78;5097796;28;20353;-64
2023/03/09 04:54:09;;;;;;;;;;;;;;;7.80;91.56;97559.44;5096438;28;20044;-64
2023/03/09 04:56:38;;;;;;;;;;;;;;;7.85;91.88;97552.56;5096115;28;19927;-64
2023/03/09 04:59:14;;;;;;;;;;;;;;;7.91;91.70;97552.44;5097338;28;19920;-65
2023/03/09 05:01:45;;;;;;;;;;;;;;;7.93;91.63;97549.84;5096026;28;19927;-64
2023/03/09 05:04:20;;;;;;;;;;;;;;;7.93;91.59;97555.75;5097139;28;19942;-64
2023/03/09 05:06:59;;;;;;;;;;;;;;;7.94;91.21;97549.78;5097496;28;19963;-65
2023/03/09 05:09:29;;;;;;;;;;;;;;;7.96;90.90;97555.69;5097415;28;19920;-64
2023/03/09 05:11:58;;;;;;;;;;;;;;;7.96;91.13;97560.78;5096963;28;20377;-65
2023/03/09 05:14:29;;;;;;;;;;;;;;;7.99;91.08;97575.91;5096825;28;19962;-65
2023/03/09 05:16:59;;;;;;;;;;;;;;;7.96;91.18;97596.34;5095288;28;20010;-65
2023/03/09 05:19:28;;;;;;;;;;;;;;;7.93;91.32;97600.63;5096055;28;20078;-65
2023/03/09 05:22:00;;;;;;;;;;;;;;;7.91;91.07;97620.16;5096933;28;19927;-65
2023/03/09 05:24:30;;;;;;;;;;;;;;;7.89;91.09;97620.16;5097072;28;19965;-66
2023/03/09 05:27:00;;;;;;;;;;;;;;;7.89;91.38;97612.56;5096726;28;19920;-66
2023/03/09 05:29:32;;;;;;;;;;;;;;;7.87;90.90;97611.75;5096728;28;19920;-66
2023/03/09 05:32:02;;;;;;;;;;;;;;;7.89;90.76;97615.09;5096746;28;19920;-66
2023/03/09 05:34:33;;;;;;;;;;;;;;;7.87;91.43;97604.13;5096884;28;20380;-65
2023/03/09 05:37:02;;;;;;;;;;;;;;;7.86;91.44;97599.94;5096492;28;19944;-66
2023/03/09 05:39:32;;;;;;;;;;;;;;;7.87;91.09;97591.44;5096309;28;19920;-66
2023/03/09 05:42:00;;;;;;;;;;;;;;;7.92;91.20;97584.56;5095253;28;19920;-66
2023/03/09 05:44:35;;;;;;;;;;;;;;;7.94;91.19;97574.38;5096373;28;19927;-66
2023/03/09 05:47:06;;;;;;;;;;;;;;;7.97;91.80;97574.28;5096485;28;19982;-65
2023/03/09 05:49:35;;;;;;;;;;;;;;;7.98;91.15;97558.19;5095801;28;19920;-66
2023/03/09 05:52:03;;;;;;;;;;;;;;;7.97;91.33;97559.88;5095331;28;19969;-65
2023/03/09 05:54:34;;;;;;;;;;;;;;;8.00;91.44;97562.34;5094816;28;19966;-65
2023/03/09 05:57:08;;;;;;;;;;;;;;;8.01;91.53;97547.97;5096435;28;19927;-65
2023/03/09 05:59:37;;;;;;;;;;;;;;;8.03;91.27;97557.22;5094884;28;20382;-65
2023/03/09 06:02:07;;;;;;;;;;;;;;;8.03;91.22;97552.13;5094884;28;19965;-65
2023/03/09 06:04:40;;;;;;;;;;;;;;;8.02;91.55;97555.53;5094844;28;19920;-65
2023/03/09 06:07:10;;;;;;;;;;;;;;;8.03;91.62;97546.22;5096062;28;19925;-65
2023/03/09 06:09:44;;;;;;;;;;;;;;;8.02;91.73;97550.44;5096204;28;20029;-65
2023/03/09 06:12:18;;;;;;;;;;;;;;;8.01;92.22;97564.00;5095901;28;19950;-66
2023/03/09 06:14:51;;;;;;;;;;;;;;;8.01;91.68;97563.19;5096026;28;20324;-65
2023/03/09 06:17:23;;;;;;;;;;;;;;;7.97;91.63;97546.34;5096195;28;19920;-65
2023/03/09 06:19:53;;;;;;;;;;;;;;;7.94;91.89;97559.16;5095667;28;19942;-65
2023/03/09 06:22:23;;;;;;;;;;;;;;;7.91;91.82;97549.88;5095687;28;19920;-65
2023/03/09 06:24:52;;;;;;;;;;;;;;;7.88;90.88;97565.19;5095716;28;19987;-65
2023/03/09 06:27:20;;;;;;;;;;;;;;;7.84;91.38;97540.75;5095401;28;19920;-65
2023/03/09 06:29:49;;;;;;;;;;;;;;;7.88;91.48;97562.66;5095062;28;19955;-65
2023/03/09 06:32:17;;;;;;;;;;;;;;;7.89;91.92;97538.91;5095390;28;19954;-65
2023/03/09 06:34:47;;;;;;;;;;;;;;;7.91;91.17;97549.06;5094552;28;20381;-65
2023/03/09 06:37:19;;;;;;;;;;;;;;;7.99;91.98;97586.06;5094474;28;19958;-65
2023/03/09 06:39:49;;;;;;;;;;;;;;;8.04;91.82;97542.78;5095363;28;20014;-65
2023/03/09 06:42:17;;;;;;;;;;;;;;;8.13;92.03;97559.50;5094048;28;20022;-65
2023/03/09 06:44:51;;;;;;;;;;;;;;;8.24;91.64;97590.56;5095096;28;19928;-65
2023/03/09 06:47:22;;;;;;;;;;;;;;;8.32;91.80;97588.69;5095189;28;20428;-64
2023/03/09 06:49:59;;;;;;;;;;;;;;;8.36;90.90;97601.28;5093779;28;19967;-65
2023/03/09 06:52:29;;;;;;;;;;;;;;;8.39;91.16;97592.75;5095477;28;20362;-65
2023/03/09 06:54:59;;;;;;;;;;;;;;;8.40;90.68;97582.53;5094910;28;19926;-65
2023/03/09 06:57:49;;;;;;;;;;;;;;;8.39;90.46;97565.63;5094968;28;19969;-66
2023/03/09 07:00:20;;;;;;;;;;;;;;;8.47;90.68;97567.97;5093778;28;19986;-66
2023/03/09 07:02:53;;;;;;;;;;;;;;;8.50;90.19;97560.25;5093957;28;19931;-66
2023/03/09 07:05:23;;;;;;;;;;;;;;;8.53;90.11;97562.72;5093615;28;19920;-66
2023/03/09 07:07:52;;;;;;;;;;;;;;;8.56;89.93;97590.59;5093615;28;19927;-65
2023/03/09 07:10:20;;;;;;;;;;;;;;;8.58;90.16;97561.72;5094829;28;19920;-66
2023/03/09 07:12:49;;;;;;;;;;;;;;;8.60;89.48;97570.13;5094736;28;19963;-66
2023/03/09 07:15:18;;;;;;;;;;;;;;;8.65;89.16;97578.47;5094671;28;20018;-65
2023/03/09 07:17:46;;;;;;;;;;;;;;;8.66;89.72;97594.56;5094670;28;20357;-65
2023/03/09 07:20:17;;;;;;;;;;;;;;;8.66;90.09;97599.66;5094532;28;20320;-65
2023/03/09 07:22:46;;;;;;;;;;;;;;;8.65;90.02;97610.69;5094338;28;19955;-65
2023/03/09 07:25:16;;;;;;;;;;;;;;;8.67;90.21;97619.09;5094287;28;20353;-65
2023/03/09 07:27:44;;;;;;;;;;;;;;;8.72;89.88;97624.91;5094682;28;20250;-65
2023/03/09 07:30:13;;;;;;;;;;;;;;;8.74;90.15;97623.16;5094839;28;19920;-65
2023/03/09 07:32:42;;;;;;;;;;;;;;;8.78;90.03;97609.50;5094686;28;19966;-65
2023/03/09 07:35:10;;;;;;;;;;;;;;;8.82;89.09;97603.44;5094364;28;19966;-65
2023/03/09 07:37:40;;;;;;;;;;;;;;;8.90;90.06;97609.16;5094341;28;20327;-66
2023/03/09 07:40:12;;;;;;;;;;;;;;;9.00;89.76;97605.47;5094554;28;19971;-65
2023/03/09 07:42:42;;;;;;;;;;;;;;;9.08;89.62;97588.28;5094371;28;19920;-65
2023/03/09 07:45:18;;;;;;;;;;;;;;;9.12;88.90;97587.31;5094074;28;19963;-65
2023/03/09 07:47:46;;;;;;;;;;;;;;;9.14;88.97;97598.28;5098446;28;20407;-65
2023/03/09 07:50:15;;;;;;;;;;;;;;;9.17;88.47;97623.66;5114566;28;20366;-65
2023/03/09 07:52:43;;;;;;;;;;;;;;;9.18;88.59;97610.06;5114494;28;19965;-65
2023/03/09 07:55:14;;;;;;;;;;;;;;;9.24;88.53;97620.06;5114266;28;20361;-65
2023/03/09 07:57:43;;;;;;;;;;;;;;;9.33;88.21;97624.88;5114396;28;20392;-65
2023/03/09 08:00:14;;;;;;;;;;;;;;;9.41;87.73;97638.22;5110981;28;19955;-65
2023/03/09 08:02:45;;;;;;;;;;;;;;;9.49;87.14;97629.53;5103333;28;19965;-64
2023/03/09 08:05:15;;;;;;;;;;;;;;;9.53;86.91;97631.09;5094042;28;19920;-65
2023/03/09 08:07:46;;;;;;;;;;;;;;;9.55;86.24;97629.34;5094135;28;19927;-64
2023/03/09 08:10:17;;;;;;;;;;;;;;;9.60;86.44;97635.16;5104120;28;19927;-64
2023/03/09 08:12:48;;;;;;;;;;;;;;;9.63;86.42;97632.50;5093869;28;20366;-65
2023/03/09 08:15:18;;;;;;;;;;;;;;;9.67;85.84;97631.53;5093803;28;19920;-64
2023/03/09 08:17:47;;;;;;;;;;;;;;;9.69;85.99;97632.31;5093852;28;19920;-64
2023/03/09 08:20:16;;;;;;;;;;;;;;;9.69;85.72;97627.22;5092510;28;19920;-64
2023/03/09 08:22:45;;;;;;;;;;;;;;;9.69;86.13;97632.31;5094004;28;19920;-65
2023/03/09 08:25:20;;;;;;;;;;;;;;;9.72;86.25;97624.56;5093954;28;19928;-64
2023/03/09 08:27:49;;;;;;;;;;;;;;;9.73;86.19;97623.69;5093640;28;19924;-63
2023/03/09 08:30:20;;;;;;;;;;;;;;;9.74;85.63;97633.03;5092417;28;19927;-64
2023/03/09 08:32:49;;;;;;;;;;;;;;;9.76;86.21;97636.34;5092853;28;19970;-64
2023/03/09 08:35:18;;;;;;;;;;;;;;;9.77;85.50;97638.84;5094178;28;19946;-64
2023/03/09 08:37:46;;;;;;;;;;;;;;;9.79;85.53;97646.44;5094121;28;20370;-65
2023/03/09 08:40:15;;;;;;;;;;;;;;;9.79;85.52;97654.91;5093914;28;19920;-64
2023/03/09 08:42:45;;;;;;;;;;;;;;;9.76;85.39;97655.03;5093379;28;19919;-64
2023/03/09 08:45:14;;;;;;;;;;;;;;;9.74;85.25;97651.66;5101539;28;19926;-64
2023/03/09 08:47:42;;;;;;;;;;;;;;;9.73;85.31;97649.16;5105775;28;19926;-65
2023/03/09 08:50:11;;;;;;;;;;;;;;;9.76;85.56;97646.53;5113973;28;20035;-64
2023/03/09 08:52:39;;;;;;;;;;;;;;;9.81;85.20;97652.34;5116107;28;20383;-64
2023/03/09 08:55:09;;;;;;;;;;;;;;;9.89;85.22;97653.75;5117667;28;20007;-64
2023/03/09 08:57:38;;;;;;;;;;;;;;;10.01;85.99;97655.09;5115578;28;19927;-64
2023/03/09 09:00:10;;;;;;;;;;;;;;;10.13;86.09;97649.63;5097296;28;19926;-64
2023/03/09 09:02:39;;;;;;;;;;;;;;;10.23;85.59;97643.38;5097221;28;19920;-64
2023/03/09 09:05:08;;;;;;;;;;;;;;;10.29;85.48;97650.00;5097043;28;19970;-64
2023/03/09 09:07:37;;;;;;;;;;;;;;;10.36;85.64;97657.41;5104905;28;20010;-63
2023/03/09 09:10:05;;;;;;;;;;;;;;;10.37;85.76;97648.00;5097015;28;19920;-64
2023/03/09 09:12:37;;;;;;;;;;;;;;;10.37;85.51;97648.00;5106763;28;19919;-64
2023/03/09 09:15:08;;;;;;;;;;;;;;;10.35;85.60;97648.06;5116806;28;20014;-64
2023/03/09 09:17:38;;;;;;;;;;;;;;;10.34;85.33;97651.50;5117371;28;19927;-63
2023/03/09 09:20:08;;;;;;;;;;;;;;;10.31;84.99;97655.88;5117647;28;19920;-64
2023/03/09 09:22:37;;;;;;;;;;;;;;;10.34;84.88;97654.03;5116960;28;19949;-64
2023/03/09 09:25:08;;;;;;;;;;;;;;;10.35;85.11;97660.81;5117332;28;19967;-64
2023/03/09 09:27:36;;;;;;;;;;;;;;;10.37;84.79;97659.06;5117739;28;20010;-64
2023/03/09 09:30:05;;;;;;;;;;;;;;;10.40;84.69;97658.97;5117463;28;20387;-64
2023/03/09 09:32:34;;;;;;;;;;;;;;;10.41;84.94;97665.75;5117007;28;19927;-64
2023/03/09 09:35:05;;;;;;;;;;;;;;;10.43;84.75;97674.16;5117236;28;19920;-64
2023/03/09 09:37:34;;;;;;;;;;;;;;;10.43;84.74;97663.97;5116917;28;19926;-64
2023/03/09 09:40:02;;;;;;;;;;;;;;;10.48;85.10;97679.13;5116901;28;19919;-64
2023/03/09 09:42:33;;;;;;;;;;;;;;;10.50;85.43;97673.09;5117141;28;19967;-65
2023/03/09 09:45:06;;;;;;;;;;;;;;;10.53;85.78;97675.50;5116999;28;19926;-64
2023/03/09 09:47:35;;;;;;;;;;;;;;;10.52;85.60;97681.50;5116756;28;19919;-64
2023/03/09 09:50:16;;;;;;;;;;;;;;;10.51;86.30;97682.38;5116879;28;20304;-65
2023/03/09 09:52:54;;;;;;;;;;;;;;;10.48;86.29;97679.94;5116949;28;19920;-65
2023/03/09 09:55:24;;;;;;;;;;;;;;;10.47;86.36;97691.03;5116649;28;20377;-65
2023/03/09 09:57:59;;;;;;;;;;;;;;;10.47;86.47;97685.09;5116532;28;19963;-65
2023/03/09 10:00:32;;;;;;;;;;;;;;;10.45;86.86;97682.59;5116476;28;19920;-65
2023/03/09 10:03:10;;;;;;;;;;;;;;;10.45;86.93;97691.94;5115695;28;19923;-65
2023/03/09 10:05:44;;;;;;;;;;;;;;;10.46;87.07;97704.66;5116320;28;20006;-65
2023/03/09 10:08:22;;;;;;;;;;;;;;;10.48;86.92;97704.63;5116373;28;19926;-65
2023/03/09 10:10:51;;;;;;;;;;;;;;;10.51;86.61;97695.13;5117150;28;19923;-64
2023/03/09 10:13:23;;;;;;;;;;;;;;;10.49;86.27;97694.34;5116086;28;20015;-65
2023/03/09 10:15:53;;;;;;;;;;;;;;;10.49;85.69;97699.44;5116194;27;19927;-66
2023/03/09 10:18:39;;;;;;;;;;;;;;;10.51;85.15;97696.88;5116211;28;19919;-65
2023/03/09 10:21:14;;;;;;;;;;;;;;;10.56;84.87;97695.81;5116152;28;19920;-65
2023/03/09 10:23:44;;;;;;;;;;;;;;;10.62;84.81;97700.75;5116089;28;19919;-64
2023/03/09 10:26:22;;;;;;;;;;;;;;;10.70;84.29;97697.94;5116433;28;19919;-65
2023/03/09 10:28:53;;;;;;;;;;;;;;;10.80;84.49;97706.13;5115938;28;19920;-65
2023/03/09 10:31:23;;;;;;;;;;;;;;;10.86;84.07;97708.44;5116261;28;19973;-65
2023/03/09 10:33:55;;;;;;;;;;;;;;;10.90;84.06;97715.09;5116132;28;19920;-65
2023/03/09 10:36:28;;;;;;;;;;;;;;;10.93;83.87;97725.22;5115800;28;19927;-65
2023/03/09 10:39:02;;;;;;;;;;;;;;;10.92;83.75;97718.47;5116372;28;20014;-65
2023/03/09 10:41:30;;;;;;;;;;;;;;;10.90;83.48;97725.31;5115662;28;19923;-65
2023/03/09 10:43:59;;;;;;;;;;;;;;;10.92;83.61;97738.88;5115666;28;19965;-65
2023/03/09 10:46:28;;;;;;;;;;;;;;;10.91;84.04;97747.41;5115699;27;19966;-65
2023/03/09 10:49:10;;;;;;;;;;;;;;;10.93;83.95;97746.47;5116196;28;19920;-66
2023/03/09 10:51:42;;;;;;;;;;;;;;;11.03;84.10;97754.66;5115516;28;19969;-66
2023/03/09 10:54:20;;;;;;;;;;;;;;;11.16;84.21;97753.34;5115540;28;19941;-65
2023/03/09 10:56:48;;;;;;;;;;;;;;;11.39;84.40;97761.91;5114569;28;20432;-65
2023/03/09 10:59:20;;;;;;;;;;;;;;;11.67;84.05;97761.75;5115343;28;19969;-65
2023/03/09 11:01:51;;;;;;;;;;;;;;;11.94;83.76;97760.78;5110862;28;19960;-65
2023/03/09 11:04:31;;;;;;;;;;;;;;;12.22;83.70;97755.47;5110074;28;19965;-65
2023/03/09 11:07:02;;;;;;;;;;;;;;;12.34;83.52;97764.38;5115358;28;20010;-65
2023/03/09 11:09:33;;;;;;;;;;;;;;;12.34;83.46;97779.72;5115248;28;20357;-63
2023/03/09 11:12:13;;;;;;;;;;;;;;;12.25;83.61;97790.31;5115058;28;20365;-65
2023/03/09 11:14:43;;;;;;;;;;;;;;;12.10;83.36;97824.97;5114321;28;20355;-65
2023/03/09 11:17:26;;;;;;;;;;;;;;;11.98;83.65;97849.25;5105068;28;20286;-65
2023/03/09 11:20:19;;;;;;;;;;;;;;;11.80;84.06;97839.69;5094928;28;19920;-65
2023/03/09 11:22:52;;;;;;;;;;;;;;;11.71;83.56;97844.28;5094378;28;19920;-65
2023/03/09 11:25:25;;;;;;;;;;;;;;;11.70;83.55;97858.78;5094947;28;19920;-65
2023/03/09 11:27:57;;;;;;;;;;;;;;;11.78;83.52;97856.78;5094459;28;19955;-65
2023/03/09 11:30:27;;;;;;;;;;;;;;;11.88;83.33;97847.91;5100118;28;20022;-65
2023/03/09 11:32:55;;;;;;;;;;;;;;;11.96;83.19;97861.25;5100215;28;19959;-64
2023/03/09 11:35:24;;;;;;;;;;;;;;;12.03;82.73;97865.25;5094181;28;19965;-64
2023/03/09 11:37:58;;;;;;;;;;;;;;;12.10;82.17;97866.72;5094913;28;19965;-64
2023/03/09 11:40:29;;;;;;;;;;;;;;;12.15;81.68;97881.88;5093860;28;19920;-64
2023/03/09 11:42:59;;;;;;;;;;;;;;;12.22;80.77;97893.56;5102622;28;19926;-64
2023/03/09 11:45:29;;;;;;;;;;;;;;;12.32;80.28;97892.34;5114377;28;19920;-65
2023/03/09 11:48:01;;;;;;;;;;;;;;;12.61;80.22;97898.94;5110671;28;19926;-65
2023/03/09 11:50:34;;;;;;;;;;;;;;;12.96;79.80;97897.59;5103348;28;20430;-65
2023/03/09 11:53:06;;;;;;;;;;;;;;;13.32;79.38;97902.13;5094166;28;19924;-65
2023/03/09 11:55:36;;;;;;;;;;;;;;;13.67;78.82;97902.44;5097437;28;19950;-66
2023/03/09 11:58:09;;;;;;;;;;;;;;;13.90;77.98;97915.94;5104567;28;19919;-66
2023/03/09 12:00:40;;;;;;;;;;;;;;;13.98;77.21;97905.38;5107592;28;19988;-66
2023/03/09 12:03:11;;;;;;;;;;;;;;;13.89;76.50;97903.19;5096008;28;19920;-65
2023/03/09 12:05:44;;;;;;;;;;;;;;;13.69;75.55;97910.88;5093949;28;19920;-65
2023/03/09 12:08:17;;;;;;;;;;;;;;;13.58;74.56;97918.19;5095913;28;19935;-65
2023/03/09 12:10:50;;;;;;;;;;;;;;;13.60;74.59;97916.41;5093848;28;19959;-65
2023/03/09 12:13:20;;;;;;;;;;;;;;;13.58;74.17;97918.19;5093666;28;19971;-65
2023/03/09 12:15:51;;;;;;;;;;;;;;;13.49;73.92;97926.22;5094184;28;20018;-65
2023/03/09 12:18:21;;;;;;;;;;;;;;;13.41;73.56;97924.81;5094339;28;19927;-65
2023/03/09 12:20:52;;;;;;;;;;;;;;;13.34;73.60;97920.03;5093555;28;19919;-65
2023/03/09 12:23:31;;;;;;;;;;;;;;;13.27;73.20;97924.53;5092084;28;19973;-65
2023/03/09 12:26:02;;;;;;;;;;;;;;;13.22;72.72;97925.63;5092693;28;20286;-65
2023/03/09 12:28:30;;;;;;;;;;;;;;;13.16;73.17;97926.69;5097643;28;19919;-65
2023/03/09 12:30:59;;;;;;;;;;;;;;;13.11;72.72;97923.47;5097855;28;19965;-65
2023/03/09 12:33:43;;;;;;;;;;;;;;;13.11;72.32;97925.19;5098044;28;20282;-65
2023/03/09 12:36:22;;;;;;;;;;;;;;;13.11;72.46;97926.03;5097584;28;19920;-65
2023/03/09 12:39:05;;;;;;;;;;;;;;;13.14;72.38;97925.94;5097461;28;20007;-65
2023/03/09 12:41:49;;;;;;;;;;;;;;;13.18;72.30;97932.59;5113028;28;20345;-65
2023/03/09 12:44:44;;;;;;;;;;;;;;;13.21;72.29;97929.91;5097691;28;19920;-65
2023/03/09 12:47:22;;;;;;;;;;;;;;;13.25;72.01;97941.69;5097099;28;19920;-65
2023/03/09 12:49:52;;;;;;;;;;;;;;;13.31;71.70;97940.63;5097379;28;19926;-65
2023/03/09 12:52:36;;;;;;;;;;;;;;;13.37;71.41;97936.09;5097398;28;19945;-65
2023/03/09 12:55:13;;;;;;;;;;;;;;;13.48;71.31;97932.28;5095792;28;19924;-65
2023/03/09 12:57:42;;;;;;;;;;;;;;;13.49;70.66;97936.47;5097802;28;19927;-65
2023/03/09 13:00:24;;;;;;;;;;;;;;;13.46;70.63;97939.19;5097454;28;19946;-65
2023/03/09 13:02:55;;;;;;;;;;;;;;;13.42;70.94;97943.59;5097576;28;19981;-65
2023/03/09 13:05:41;;;;;;;;;;;;;;;13.42;70.65;97939.31;5097481;28;20285;-65
2023/03/09 13:08:21;;;;;;;;;;;;;;;13.46;70.97;97939.19;5097035;28;20022;-65
2023/03/09 13:10:50;;;;;;;;;;;;;;;13.44;70.58;97936.66;5097499;28;19966;-65
2023/03/09 13:13:29;;;;;;;;;;;;;;;13.44;69.88;97932.38;5096812;28;20003;-65